createdAt,value
2019-05-26T00:04:56.392Z,100389.02
2019-05-26T00:09:58.410Z,100392.30
2019-05-26T00:15:00.443Z,100395.73
2019-05-26T00:20:03.109Z,100393.75
2019-05-26T00:25:05.261Z,100388.14
2019-05-26T00:30:08.116Z,100383.00
2019-05-26T00:35:10.353Z,100372.73
2019-05-26T00:40:12.376Z,100374.05
2019-05-26T00:45:14.864Z,100375.35
2019-05-26T00:50:17.466Z,100372.86
2019-05-26T00:55:19.515Z,100370.92
2019-05-26T01:00:37.984Z,100373.84
2019-05-26T01:05:40.525Z,100372.20
2019-05-26T01:10:42.582Z,100371.52
2019-05-26T01:15:44.669Z,100371.32
2019-05-26T01:20:48.424Z,100370.32
2019-05-26T01:25:50.473Z,100368.33
2019-05-26T01:30:52.577Z,100364.64
2019-05-26T01:35:54.892Z,100359.69
2019-05-26T01:40:56.991Z,100357.39
2019-05-26T01:45:59.101Z,100353.75
2019-05-26T01:51:01.214Z,100351.25
2019-05-26T01:56:05.394Z,100361.73
2019-05-26T02:01:07.481Z,100354.61
2019-05-26T02:06:09.529Z,100354.27
2019-05-26T02:11:11.599Z,100354.88
2019-05-26T02:16:13.638Z,100348.94
2019-05-26T02:21:15.771Z,100344.66
2019-05-26T02:26:18.585Z,100335.92
2019-05-26T02:31:21.036Z,100337.05
2019-05-26T02:36:23.173Z,100331.45
2019-05-26T02:41:25.311Z,100328.95
2019-05-26T02:46:27.404Z,100324.80
2019-05-26T02:51:29.505Z,100315.09
2019-05-26T02:56:31.829Z,100312.12
2019-05-26T03:01:34.327Z,100316.02
2019-05-26T03:06:37.700Z,100325.02
2019-05-26T03:11:41.948Z,100328.59
2019-05-26T03:16:46.395Z,100327.14
2019-05-26T03:21:52.592Z,100321.69
2019-05-26T03:26:55.838Z,100317.05
2019-05-26T03:31:57.945Z,100317.86
2019-05-26T03:37:00.015Z,100319.34
2019-05-26T03:42:02.160Z,100323.62
2019-05-26T03:47:04.237Z,100323.12
2019-05-26T03:52:06.307Z,100323.62
2019-05-26T03:57:09.873Z,100326.08
2019-05-26T04:02:13.754Z,100325.44
2019-05-26T04:07:15.818Z,100320.55
2019-05-26T04:12:17.837Z,100324.66
2019-05-26T04:17:19.932Z,100321.55
2019-05-26T04:22:22.010Z,100308.09
2019-05-26T04:27:24.226Z,100314.42
2019-05-26T04:32:26.285Z,100313.14
2019-05-26T04:37:28.367Z,100321.25
2019-05-26T04:42:30.417Z,100320.16
2019-05-26T04:47:32.502Z,100329.94
2019-05-26T04:52:34.557Z,100325.92
2019-05-26T04:57:36.626Z,100326.66
2019-05-26T05:02:38.695Z,100328.81
2019-05-26T05:07:40.790Z,100327.31
2019-05-26T05:12:42.884Z,100329.64
2019-05-26T05:17:44.940Z,100325.47
2019-05-26T05:22:47.005Z,100324.89
2019-05-26T05:27:49.101Z,100319.64
2019-05-26T05:32:51.169Z,100314.22
2019-05-26T05:37:53.262Z,100308.09
2019-05-26T05:42:55.315Z,100308.67
2019-05-26T05:47:59.538Z,100314.45
2019-05-26T05:53:01.598Z,100318.70
2019-05-26T05:58:03.698Z,100316.42
2019-05-26T06:03:05.751Z,100317.84
2019-05-26T06:08:07.838Z,100311.67
2019-05-26T06:13:09.897Z,100303.12
2019-05-26T06:18:11.996Z,100300.45
2019-05-26T06:23:14.159Z,100310.91
2019-05-26T06:28:18.244Z,100301.75
2019-05-26T06:33:20.301Z,100291.16
2019-05-26T06:38:22.346Z,100289.31
2019-05-26T06:43:24.431Z,100285.38
2019-05-26T06:48:27.137Z,100278.28
2019-05-26T06:53:29.622Z,100270.90
2019-05-26T06:58:31.719Z,100271.73
2019-05-26T07:03:33.809Z,100273.89
2019-05-26T07:08:35.974Z,100274.13
2019-05-26T07:13:38.139Z,100269.30
2019-05-26T07:18:40.289Z,100277.95
2019-05-26T07:23:42.385Z,100272.11
2019-05-26T07:28:44.491Z,100276.09
2019-05-26T07:33:46.570Z,100278.73
2019-05-26T07:38:49.942Z,100278.59
2019-05-26T07:43:53.861Z,100262.77
2019-05-26T07:48:55.953Z,100258.71
2019-05-26T07:53:58.036Z,100258.53
2019-05-26T07:59:00.173Z,100248.61
2019-05-26T08:04:02.231Z,100254.54
2019-05-26T08:09:06.908Z,100248.41
2019-05-26T08:14:08.885Z,100247.45
2019-05-26T08:19:13.484Z,100240.59
2019-05-26T08:24:25.061Z,100230.53
2019-05-26T08:29:27.220Z,100227.86
2019-05-26T08:34:29.399Z,100227.98
2019-05-26T08:39:31.657Z,100217.81
2019-05-26T08:44:33.795Z,100207.56
2019-05-26T08:49:35.870Z,100194.55
2019-05-26T08:54:37.903Z,100187.52
2019-05-26T08:59:39.996Z,100191.53
2019-05-26T09:04:42.097Z,100186.63
2019-05-26T09:09:44.285Z,100186.92
2019-05-26T09:14:46.425Z,100190.28
2019-05-26T09:19:48.472Z,100177.06
2019-05-26T09:24:50.652Z,100170.50
2019-05-26T09:29:52.741Z,100166.86
2019-05-26T09:34:54.791Z,100166.70
2019-05-26T09:39:58.257Z,100162.77
2019-05-26T09:45:00.409Z,100162.77
2019-05-26T09:50:04.695Z,100161.42
2019-05-26T09:55:09.819Z,100159.16
2019-05-26T10:00:16.168Z,100150.47
2019-05-26T10:05:18.255Z,100143.28
2019-05-26T10:10:28.565Z,100139.88
2019-05-26T10:15:40.040Z,100139.51
2019-05-26T10:20:43.981Z,100133.70
2019-05-26T10:26:05.573Z,100117.84
2019-05-26T10:31:07.710Z,100121.85
2019-05-26T10:36:09.733Z,100128.47
2019-05-26T10:41:11.808Z,100121.85
2019-05-26T10:46:13.903Z,100113.41
2019-05-26T10:51:16.101Z,100107.41
2019-05-26T10:56:18.300Z,100110.63
2019-05-26T11:01:21.600Z,100112.16
2019-05-26T11:06:23.905Z,100101.56
2019-05-26T11:11:35.765Z,100101.72
2019-05-26T11:16:43.185Z,100084.78
2019-05-26T11:21:50.031Z,100076.98
2019-05-26T11:26:52.929Z,100072.63
2019-05-26T11:31:55.197Z,100060.48
2019-05-26T11:37:00.475Z,100048.86
2019-05-26T11:42:12.775Z,100045.89
2019-05-26T11:47:06.774Z,100034.13
2019-05-26T11:52:08.932Z,100034.09
2019-05-26T11:57:11.101Z,100025.66
2019-05-26T12:02:13.151Z,100016.03
2019-05-26T12:07:15.309Z,100016.60
2019-05-26T12:12:17.648Z,100017.77
2019-05-26T12:17:19.944Z,100004.52
2019-05-26T12:22:22.027Z,100000.78
2019-05-26T12:27:24.118Z,100004.16
2019-05-26T12:32:26.298Z,99998.88
2019-05-26T12:37:28.577Z,99985.52
2019-05-26T12:42:30.643Z,99983.74
2019-05-26T12:47:32.707Z,99984.47
2019-05-26T12:52:34.768Z,99971.62
2019-05-26T12:57:36.875Z,99972.13
2019-05-26T13:02:38.932Z,99973.89
2019-05-26T13:07:41.019Z,99966.69
2019-05-26T13:12:43.210Z,99977.66
2019-05-26T13:17:45.278Z,99959.48
2019-05-26T13:22:47.456Z,99963.41
2019-05-26T13:27:49.545Z,99963.18
2019-05-26T13:32:51.630Z,99959.16
2019-05-26T13:37:53.694Z,99957.09
2019-05-26T13:42:55.702Z,99945.67
2019-05-26T13:47:57.778Z,99945.42
2019-05-26T13:52:59.962Z,99934.88
2019-05-26T13:58:02.013Z,99941.46
2019-05-26T14:03:04.172Z,99931.45
2019-05-26T14:08:06.218Z,99932.30
2019-05-26T14:13:08.293Z,99929.98
2019-05-26T14:18:10.559Z,99923.58
2019-05-26T14:23:12.601Z,99919.67
2019-05-26T14:28:14.701Z,99915.77
2019-05-26T14:33:16.796Z,99917.17
2019-05-26T14:38:18.899Z,99918.73
2019-05-26T14:43:20.962Z,99907.33
2019-05-26T14:48:23.038Z,99904.08
2019-05-26T14:53:25.066Z,99897.53
2019-05-26T14:58:27.000Z,99895.44
2019-05-26T15:03:29.054Z,99892.43
2019-05-26T15:08:31.192Z,99896.38
2019-05-26T15:13:33.267Z,99892.35
2019-05-26T15:18:35.340Z,99883.86
2019-05-26T15:23:37.369Z,99890.77
2019-05-26T15:28:39.481Z,99896.27
2019-05-26T15:33:41.562Z,99881.54
2019-05-26T15:38:43.618Z,99869.42
2019-05-26T15:43:45.654Z,99874.78
2019-05-26T15:48:47.721Z,99869.89
2019-05-26T15:53:49.781Z,99869.02
2019-05-26T15:58:51.812Z,99859.69
2019-05-26T16:03:53.897Z,99853.83
2019-05-26T16:08:55.963Z,99851.20
2019-05-26T16:13:58.205Z,99851.13
2019-05-26T16:19:00.309Z,99847.14
2019-05-26T16:24:02.440Z,99850.86
2019-05-26T16:29:04.826Z,99842.84
2019-05-26T16:34:07.020Z,99848.22
2019-05-26T16:39:09.160Z,99844.09
2019-05-26T16:44:11.387Z,99841.31
2019-05-26T16:49:13.450Z,99834.11
2019-05-26T16:54:15.566Z,99835.02
2019-05-26T16:59:17.619Z,99843.44
2019-05-26T17:04:19.820Z,99835.97
2019-05-26T17:09:22.048Z,99833.77
2019-05-26T17:14:24.093Z,99833.39
2019-05-26T17:19:26.191Z,99839.69
2019-05-26T17:24:28.202Z,99838.12
2019-05-26T17:29:30.272Z,99837.82
2019-05-26T17:34:32.370Z,99837.98
2019-05-26T17:39:35.693Z,99835.30
2019-05-26T17:44:37.986Z,99835.31
2019-05-26T17:49:40.054Z,99829.05
2019-05-26T17:54:42.038Z,99826.75
2019-05-26T17:59:44.124Z,99821.49
2019-05-26T18:04:48.458Z,99815.56
2019-05-26T18:09:52.767Z,99809.09
2019-05-26T18:14:54.832Z,99812.84
2019-05-26T18:19:58.047Z,99815.19
2019-05-26T18:25:00.231Z,99810.17
2019-05-26T18:30:02.670Z,99802.48
2019-05-26T18:35:07.661Z,99798.40
2019-05-26T18:40:10.141Z,99793.97
2019-05-26T18:45:12.273Z,99794.67
2019-05-26T18:50:14.303Z,99798.55
2019-05-26T18:55:16.494Z,99790.14
2019-05-26T19:00:19.627Z,99793.87
2019-05-26T19:05:32.877Z,99791.92
2019-05-26T19:10:30.696Z,99784.88
2019-05-26T19:15:32.793Z,99791.02
2019-05-26T19:20:34.998Z,99792.34
2019-05-26T19:25:37.068Z,99795.55
2019-05-26T19:30:39.159Z,99795.63
2019-05-26T19:35:41.238Z,99794.26
2019-05-26T19:40:43.439Z,99791.40
2019-05-26T19:45:45.568Z,99791.20
2019-05-26T19:50:47.645Z,99789.16
2019-05-26T19:55:49.683Z,99787.75
2019-05-26T20:00:51.875Z,99784.83
2019-05-26T20:05:53.915Z,99780.05
2019-05-26T20:10:55.961Z,99780.82
2019-05-26T20:15:58.167Z,99782.28
2019-05-26T20:21:00.313Z,99777.92
2019-05-26T20:26:02.475Z,99781.22
2019-05-26T20:31:04.509Z,99773.27
2019-05-26T20:36:06.637Z,99770.03
2019-05-26T20:41:08.776Z,99770.76
2019-05-26T20:46:10.945Z,99777.44
2019-05-26T20:51:13.361Z,99769.08
2019-05-26T20:56:15.552Z,99771.69
2019-05-26T21:01:17.994Z,99765.75
2019-05-26T21:06:25.716Z,99760.77
2019-05-26T21:11:29.347Z,99756.38
2019-05-26T21:16:31.598Z,99764.80
2019-05-26T21:21:34.202Z,99758.88
2019-05-26T21:26:36.442Z,99762.06
2019-05-26T21:31:38.668Z,99757.58
2019-05-26T21:36:40.888Z,99757.99
2019-05-26T21:41:44.839Z,99755.75
2019-05-26T21:46:46.861Z,99751.16
2019-05-26T21:51:49.002Z,99755.27
2019-05-26T21:56:51.344Z,99755.16
2019-05-26T22:01:54.651Z,99744.91
2019-05-26T22:06:59.263Z,99743.16
2019-05-26T22:12:01.288Z,99742.86
2019-05-26T22:17:03.409Z,99736.02
2019-05-26T22:22:05.451Z,99737.23
2019-05-26T22:27:07.518Z,99728.35
2019-05-26T22:32:09.664Z,99720.11
2019-05-26T22:37:11.783Z,99711.80
2019-05-26T22:42:13.847Z,99712.92
2019-05-26T22:47:15.961Z,99706.81
2019-05-26T22:52:18.109Z,99699.86
2019-05-26T22:57:20.266Z,99702.63
2019-05-26T23:02:22.362Z,99701.38
2019-05-26T23:07:24.592Z,99705.88
2019-05-26T23:12:26.734Z,99702.08
2019-05-26T23:17:28.813Z,99698.40
2019-05-26T23:22:31.070Z,99698.20
2019-05-26T23:27:33.124Z,99697.30
2019-05-26T23:32:35.290Z,99689.47
2019-05-26T23:37:37.353Z,99690.29
2019-05-26T23:42:39.401Z,99690.70
2019-05-26T23:47:41.540Z,99688.52
2019-05-26T23:52:43.619Z,99684.77
2019-05-26T23:57:45.819Z,99682.50
